LECV

Madri-Colmenar Airport

Spain
TAF LECV 210800Z 2109/2118 15005KT CAVOK PROB40 TEMPO 2112/2118 FEW045TCU
Issued Valid From Valid To
Jun-21 @ 08:00 UTC
(2 hours ago)
Jun-21 @ 09:00 UTC
(an hour ago)
Jun-21 @ 18:00 UTC
(in 8 hours)
Jun-21 @ 09:00 to Jun-21 @ 18:00
TAF LECV 210800Z 2109/2118 15005KT CAVOK
Wind Visibility Clouds Conditions
150° at 5 knots 10,000+ meters
  • No significant clouds
Temporary  (Probability 40%) Jun-21 @ 12:00 to Jun-21 @ 18:00
PROB40 TEMPO 2112/2118 FEW045TCU
Clouds
  • Few at 4,500' AGL
TAF LECV 210800Z 2109/2118 15005KT CAVOK PROB40 TEMPO 2112/2118 FEW045TCU
Issued Jun-21 @ 08:00 UTC
(2 hours ago)
Valid From Jun-21 @ 09:00 UTC
(an hour ago)
Valid To Jun-21 @ 18:00 UTC
(in 8 hours)
Jun-21 @ 09:00 - Jun-21 @ 18:00
Wind Visibility
150° at 5 knots 10,000+ meters
Clouds
  • No significant clouds
Conditions
Probability 40% Temporary Jun-21 @ 12:00 - Jun-21 @ 18:00
Clouds
  • Few at 4,500' AGL